Pudasjarvi Airport, Finland

2:11 AM EET on March 02, 2015 (GMT +0200)
Oulu | Change Station
CLOSE
Current Station
Airport
Location: Oulu,
Elevation: 49 ft
Nearby Weather Stations

Elev 49 ft 64.93 °N, 25.35 °E | Updated 21 minutes ago

Partly Cloudy
Partly Cloudy
34 °F
Feels Like 25 °F
N
12
Wind Variable Wind from SSE

Today
High -- | Low -- °F
--% Chance of Precip.
Yesterday
High -- | Low -- °F
Precip. -- in
7:20 AM 5:28 PM
Waxing Gibbous, 88% visible
Pressure 29.47 in
Visibility 6.2 miles
Clouds Few 2200 ft
Windchill 25 °F
Dew Point 28 °F
Humidity 81%
Rainfall 0.00 in
Snow Depth Not available.
UV 0 out of 12
Pollen Not available.
Air Quality Not available.
Flu Activity Not available.
METAR EFOU 012350Z AUTO 16010KT 9999 FEW022/// 01/M02 Q0998 R12/15//95

More Conditions Fewer Conditions

Pressure 29.47 in
Visibility 6.2 miles
Clouds Few 2200 ft
Windchill 25 °F
Dew Point 28 °F
Humidity 81%
Rainfall 0.00 in
Snow Depth Not available.
UV 0 out of 12
Pollen Not available.
Air Quality Not available.
Flu Activity Not available.
METAR EFOU 012350Z AUTO 16010KT 9999 FEW022/// 01/M02 Q0998 R12/15//95

More Conditions Fewer Conditions

10-Day Weather Forecast

Almanac

Astronomy

Mar. 02, 2015 Rise Set
Actual Time
Civil Twilight
Nautical Twilight
Astronomical Twilight
Moon
Length of Visible Light
Length of Day
Tomorrow will be .
, % of the Moon is Illuminated

Today's Extremes

Country Highs Country Lows

Community

WunderPhotos

Upload Photos

1,801,642 photos uploaded!

WunderBlogs® & News

Nearby

Air Quality

  Air Quality AQ Index Pollutant
Not available.

Snow Depth

Station Depth Elevation

Earthquake Activity

City Distance Mag. Time & Date
Minimum magnitude displayed is 2.5.

Coastal Water Temperatures

Place Temperature

Nearby Weather Stations